sensor_id;sensor_type;location;lat;lon;timestamp;P1;durP1;ratioP1;P2;durP2;ratioP2
24163;SDS011;12319;49.204;8.116;2023-04-15T00:00:13;4.13;;;1.50;;
24163;SDS011;12319;49.204;8.116;2023-04-15T00:02:40;1.88;;;1.30;;
24163;SDS011;12319;49.204;8.116;2023-04-15T00:05:05;3.25;;;1.60;;
24163;SDS011;12319;49.204;8.116;2023-04-15T00:07:31;2.22;;;1.50;;
24163;SDS011;12319;49.204;8.116;2023-04-15T00:09:57;2.42;;;1.40;;
24163;SDS011;12319;49.204;8.116;2023-04-15T00:12:23;2.93;;;1.67;;
24163;SDS011;12319;49.204;8.116;2023-04-15T00:14:50;2.60;;;1.60;;
24163;SDS011;12319;49.204;8.116;2023-04-15T00:17:16;4.85;;;1.55;;
24163;SDS011;12319;49.204;8.116;2023-04-15T00:19:41;2.00;;;1.20;;
24163;SDS011;12319;49.204;8.116;2023-04-15T00:22:08;2.65;;;1.40;;
24163;SDS011;12319;49.204;8.116;2023-04-15T00:24:34;2.20;;;1.30;;
24163;SDS011;12319;49.204;8.116;2023-04-15T00:26:59;2.83;;;1.60;;
24163;SDS011;12319;49.204;8.116;2023-04-15T00:29:25;2.20;;;1.40;;
24163;SDS011;12319;49.204;8.116;2023-04-15T00:31:50;2.73;;;1.50;;
24163;SDS011;12319;49.204;8.116;2023-04-15T00:34:16;2.55;;;1.40;;
24163;SDS011;12319;49.204;8.116;2023-04-15T00:36:42;2.03;;;1.30;;
24163;SDS011;12319;49.204;8.116;2023-04-15T00:39:08;2.78;;;1.60;;
24163;SDS011;12319;49.204;8.116;2023-04-15T00:41:34;2.60;;;1.50;;
24163;SDS011;12319;49.204;8.116;2023-04-15T00:44:03;3.50;;;1.48;;
24163;SDS011;12319;49.204;8.116;2023-04-15T00:46:29;2.25;;;1.35;;
24163;SDS011;12319;49.204;8.116;2023-04-15T00:48:57;2.35;;;1.30;;
24163;SDS011;12319;49.204;8.116;2023-04-15T00:51:23;2.67;;;1.40;;
24163;SDS011;12319;49.204;8.116;2023-04-15T00:53:49;2.55;;;1.50;;
24163;SDS011;12319;49.204;8.116;2023-04-15T00:56:15;3.03;;;1.57;;
24163;SDS011;12319;49.204;8.116;2023-04-15T00:58:41;1.98;;;1.33;;
24163;SDS011;12319;49.204;8.116;2023-04-15T01:01:07;2.83;;;1.60;;
24163;SDS011;12319;49.204;8.116;2023-04-15T01:03:32;2.55;;;1.60;;
24163;SDS011;12319;49.204;8.116;2023-04-15T01:05:58;2.20;;;1.40;;
24163;SDS011;12319;49.204;8.116;2023-04-15T01:08:27;2.22;;;1.40;;
24163;SDS011;12319;49.204;8.116;2023-04-15T01:10:56;2.70;;;1.40;;
24163;SDS011;12319;49.204;8.116;2023-04-15T01:13:25;2.97;;;1.50;;
24163;SDS011;12319;49.204;8.116;2023-04-15T01:15:51;2.13;;;1.40;;
24163;SDS011;12319;49.204;8.116;2023-04-15T01:18:18;2.75;;;1.58;;
24163;SDS011;12319;49.204;8.116;2023-04-15T01:20:44;2.10;;;1.40;;
24163;SDS011;12319;49.204;8.116;2023-04-15T01:23:10;2.17;;;1.47;;
24163;SDS011;12319;49.204;8.116;2023-04-15T01:25:35;2.53;;;1.50;;
24163;SDS011;12319;49.204;8.116;2023-04-15T01:28:01;3.23;;;1.60;;
24163;SDS011;12319;49.204;8.116;2023-04-15T01:30:27;2.15;;;1.35;;
24163;SDS011;12319;49.204;8.116;2023-04-15T01:32:53;2.63;;;1.50;;
24163;SDS011;12319;49.204;8.116;2023-04-15T01:35:18;3.30;;;1.50;;
24163;SDS011;12319;49.204;8.116;2023-04-15T01:37:45;2.45;;;1.40;;
24163;SDS011;12319;49.204;8.116;2023-04-15T01:40:11;2.67;;;1.50;;
24163;SDS011;12319;49.204;8.116;2023-04-15T01:42:37;2.85;;;1.60;;
24163;SDS011;12319;49.204;8.116;2023-04-15T01:45:03;2.70;;;1.50;;
24163;SDS011;12319;49.204;8.116;2023-04-15T01:47:30;2.10;;;1.33;;
24163;SDS011;12319;49.204;8.116;2023-04-15T01:49:56;2.80;;;1.67;;
24163;SDS011;12319;49.204;8.116;2023-04-15T01:52:21;1.83;;;1.20;;
24163;SDS011;12319;49.204;8.116;2023-04-15T01:54:47;2.25;;;1.42;;
24163;SDS011;12319;49.204;8.116;2023-04-15T01:57:13;2.40;;;1.40;;
24163;SDS011;12319;49.204;8.116;2023-04-15T01:59:38;1.92;;;1.35;;
24163;SDS011;12319;49.204;8.116;2023-04-15T02:02:05;2.50;;;1.52;;
24163;SDS011;12319;49.204;8.116;2023-04-15T02:04:30;2.23;;;1.40;;
24163;SDS011;12319;49.204;8.116;2023-04-15T02:06:56;3.03;;;1.50;;
24163;SDS011;12319;49.204;8.116;2023-04-15T02:09:22;2.93;;;1.50;;
24163;SDS011;12319;49.204;8.116;2023-04-15T02:11:47;3.03;;;1.23;;
24163;SDS011;12319;49.204;8.116;2023-04-15T02:14:13;2.40;;;1.50;;
24163;SDS011;12319;49.204;8.116;2023-04-15T02:16:38;2.90;;;1.30;;
24163;SDS011;12319;49.204;8.116;2023-04-15T02:19:04;2.60;;;1.50;;
24163;SDS011;12319;49.204;8.116;2023-04-15T02:21:30;1.83;;;1.30;;
24163;SDS011;12319;49.204;8.116;2023-04-15T02:23:55;1.95;;;1.30;;
24163;SDS011;12319;49.204;8.116;2023-04-15T02:26:21;2.53;;;1.58;;
24163;SDS011;12319;49.204;8.116;2023-04-15T02:28:47;2.33;;;1.40;;
24163;SDS011;12319;49.204;8.116;2023-04-15T02:31:15;1.67;;;1.20;;
24163;SDS011;12319;49.204;8.116;2023-04-15T02:33:41;2.65;;;1.48;;
24163;SDS011;12319;49.204;8.116;2023-04-15T02:36:06;2.50;;;1.50;;
24163;SDS011;12319;49.204;8.116;2023-04-15T02:38:33;2.20;;;1.30;;
24163;SDS011;12319;49.204;8.116;2023-04-15T02:40:59;2.13;;;1.40;;
24163;SDS011;12319;49.204;8.116;2023-04-15T02:43:24;3.50;;;1.60;;
24163;SDS011;12319;49.204;8.116;2023-04-15T02:45:50;2.40;;;1.20;;
24163;SDS011;12319;49.204;8.116;2023-04-15T02:48:16;2.38;;;1.52;;
24163;SDS011;12319;49.204;8.116;2023-04-15T02:50:43;3.50;;;1.42;;
24163;SDS011;12319;49.204;8.116;2023-04-15T02:53:09;2.30;;;1.40;;
24163;SDS011;12319;49.204;8.116;2023-04-15T02:55:35;2.87;;;1.70;;
24163;SDS011;12319;49.204;8.116;2023-04-15T02:58:01;2.65;;;1.60;;
24163;SDS011;12319;49.204;8.116;2023-04-15T03:00:27;2.50;;;1.50;;
24163;SDS011;12319;49.204;8.116;2023-04-15T03:02:56;2.33;;;1.40;;
24163;SDS011;12319;49.204;8.116;2023-04-15T03:05:23;2.03;;;1.33;;
24163;SDS011;12319;49.204;8.116;2023-04-15T03:07:49;2.40;;;1.50;;
24163;SDS011;12319;49.204;8.116;2023-04-15T03:10:18;2.70;;;1.60;;
24163;SDS011;12319;49.204;8.116;2023-04-15T03:12:44;2.67;;;1.50;;
24163;SDS011;12319;49.204;8.116;2023-04-15T03:15:10;2.67;;;1.60;;
24163;SDS011;12319;49.204;8.116;2023-04-15T03:17:36;2.20;;;1.50;;
24163;SDS011;12319;49.204;8.116;2023-04-15T03:20:02;2.85;;;1.60;;
24163;SDS011;12319;49.204;8.116;2023-04-15T03:22:29;2.20;;;1.42;;
24163;SDS011;12319;49.204;8.116;2023-04-15T03:24:55;2.72;;;1.50;;
24163;SDS011;12319;49.204;8.116;2023-04-15T03:27:21;2.33;;;1.50;;
24163;SDS011;12319;49.204;8.116;2023-04-15T03:29:47;2.50;;;1.50;;
24163;SDS011;12319;49.204;8.116;2023-04-15T03:32:12;2.47;;;1.43;;
24163;SDS011;12319;49.204;8.116;2023-04-15T03:34:39;2.70;;;1.50;;
24163;SDS011;12319;49.204;8.116;2023-04-15T03:37:05;2.30;;;1.40;;
24163;SDS011;12319;49.204;8.116;2023-04-15T03:39:30;3.05;;;1.70;;
24163;SDS011;12319;49.204;8.116;2023-04-15T03:41:56;2.30;;;1.40;;
24163;SDS011;12319;49.204;8.116;2023-04-15T03:44:23;2.83;;;1.60;;
24163;SDS011;12319;49.204;8.116;2023-04-15T03:46:48;2.80;;;1.60;;
24163;SDS011;12319;49.204;8.116;2023-04-15T03:49:14;3.38;;;1.85;;
24163;SDS011;12319;49.204;8.116;2023-04-15T03:51:40;3.10;;;1.73;;
24163;SDS011;12319;49.204;8.116;2023-04-15T03:54:05;2.80;;;1.65;;
24163;SDS011;12319;49.204;8.116;2023-04-15T03:56:31;2.77;;;1.57;;
24163;SDS011;12319;49.204;8.116;2023-04-15T03:58:56;3.13;;;1.80;;
24163;SDS011;12319;49.204;8.116;2023-04-15T04:01:22;2.83;;;1.60;;
24163;SDS011;12319;49.204;8.116;2023-04-15T04:03:47;2.57;;;1.57;;
24163;SDS011;12319;49.204;8.116;2023-04-15T04:06:13;2.57;;;1.50;;
24163;SDS011;12319;49.204;8.116;2023-04-15T04:08:39;3.88;;;1.60;;
24163;SDS011;12319;49.204;8.116;2023-04-15T04:11:05;2.83;;;1.70;;
24163;SDS011;12319;49.204;8.116;2023-04-15T04:13:31;2.67;;;1.57;;
24163;SDS011;12319;49.204;8.116;2023-04-15T04:15:56;2.88;;;1.60;;
24163;SDS011;12319;49.204;8.116;2023-04-15T04:18:22;2.23;;;1.40;;
24163;SDS011;12319;49.204;8.116;2023-04-15T04:20:47;3.90;;;1.60;;
24163;SDS011;12319;49.204;8.116;2023-04-15T04:23:13;2.55;;;1.58;;
24163;SDS011;12319;49.204;8.116;2023-04-15T04:25:38;2.72;;;1.52;;
24163;SDS011;12319;49.204;8.116;2023-04-15T04:28:04;2.63;;;1.60;;
24163;SDS011;12319;49.204;8.116;2023-04-15T04:30:29;2.43;;;1.43;;
24163;SDS011;12319;49.204;8.116;2023-04-15T04:32:55;2.17;;;1.48;;
24163;SDS011;12319;49.204;8.116;2023-04-15T04:35:20;2.83;;;1.60;;
24163;SDS011;12319;49.204;8.116;2023-04-15T04:37:46;2.40;;;1.40;;
24163;SDS011;12319;49.204;8.116;2023-04-15T04:40:12;2.80;;;1.60;;
24163;SDS011;12319;49.204;8.116;2023-04-15T04:42:37;2.60;;;1.50;;
24163;SDS011;12319;49.204;8.116;2023-04-15T04:45:03;2.20;;;1.40;;
24163;SDS011;12319;49.204;8.116;2023-04-15T04:47:29;2.95;;;1.60;;
24163;SDS011;12319;49.204;8.116;2023-04-15T04:49:55;2.73;;;1.60;;
24163;SDS011;12319;49.204;8.116;2023-04-15T04:52:20;2.20;;;1.40;;
24163;SDS011;12319;49.204;8.116;2023-04-15T04:54:46;3.33;;;1.70;;
24163;SDS011;12319;49.204;8.116;2023-04-15T04:57:11;2.70;;;1.47;;
24163;SDS011;12319;49.204;8.116;2023-04-15T04:59:37;3.55;;;1.70;;
24163;SDS011;12319;49.204;8.116;2023-04-15T05:02:03;2.03;;;1.40;;
24163;SDS011;12319;49.204;8.116;2023-04-15T05:04:29;2.67;;;1.58;;
24163;SDS011;12319;49.204;8.116;2023-04-15T05:06:55;2.40;;;1.50;;
24163;SDS011;12319;49.204;8.116;2023-04-15T05:09:21;2.70;;;1.60;;
24163;SDS011;12319;49.204;8.116;2023-04-15T05:11:47;2.90;;;1.55;;
24163;SDS011;12319;49.204;8.116;2023-04-15T05:14:13;3.10;;;1.60;;
24163;SDS011;12319;49.204;8.116;2023-04-15T05:16:38;3.25;;;1.70;;
24163;SDS011;12319;49.204;8.116;2023-04-15T05:19:04;2.90;;;1.60;;
24163;SDS011;12319;49.204;8.116;2023-04-15T05:21:29;2.33;;;1.40;;
24163;SDS011;12319;49.204;8.116;2023-04-15T05:23:55;2.75;;;1.50;;
24163;SDS011;12319;49.204;8.116;2023-04-15T05:26:21;3.37;;;1.77;;
24163;SDS011;12319;49.204;8.116;2023-04-15T05:28:48;2.47;;;1.40;;
24163;SDS011;12319;49.204;8.116;2023-04-15T05:31:14;2.85;;;1.60;;
24163;SDS011;12319;49.204;8.116;2023-04-15T05:33:40;4.55;;;1.67;;
24163;SDS011;12319;49.204;8.116;2023-04-15T05:36:06;2.40;;;1.40;;
24163;SDS011;12319;49.204;8.116;2023-04-15T05:38:32;2.55;;;1.60;;
24163;SDS011;12319;49.204;8.116;2023-04-15T05:40:57;2.67;;;1.60;;
24163;SDS011;12319;49.204;8.116;2023-04-15T05:43:23;3.08;;;1.40;;
24163;SDS011;12319;49.204;8.116;2023-04-15T05:45:48;2.23;;;1.50;;
24163;SDS011;12319;49.204;8.116;2023-04-15T05:48:14;2.80;;;1.60;;
24163;SDS011;12319;49.204;8.116;2023-04-15T05:50:40;3.50;;;1.40;;
24163;SDS011;12319;49.204;8.116;2023-04-15T05:53:07;3.38;;;1.80;;
24163;SDS011;12319;49.204;8.116;2023-04-15T05:55:32;2.70;;;1.60;;
24163;SDS011;12319;49.204;8.116;2023-04-15T05:57:58;4.30;;;1.60;;
24163;SDS011;12319;49.204;8.116;2023-04-15T06:00:24;2.47;;;1.50;;
24163;SDS011;12319;49.204;8.116;2023-04-15T06:02:49;2.47;;;1.47;;
24163;SDS011;12319;49.204;8.116;2023-04-15T06:05:16;2.78;;;1.60;;
24163;SDS011;12319;49.204;8.116;2023-04-15T06:07:42;2.67;;;1.52;;
24163;SDS011;12319;49.204;8.116;2023-04-15T06:10:08;2.80;;;1.70;;
24163;SDS011;12319;49.204;8.116;2023-04-15T06:12:34;2.70;;;1.50;;
24163;SDS011;12319;49.204;8.116;2023-04-15T06:15:00;3.00;;;1.52;;
24163;SDS011;12319;49.204;8.116;2023-04-15T06:17:26;3.30;;;1.60;;
24163;SDS011;12319;49.204;8.116;2023-04-15T06:19:51;2.45;;;1.40;;
24163;SDS011;12319;49.204;8.116;2023-04-15T06:22:21;2.75;;;1.50;;
24163;SDS011;12319;49.204;8.116;2023-04-15T06:24:47;4.43;;;1.73;;
24163;SDS011;12319;49.204;8.116;2023-04-15T06:27:14;2.63;;;1.50;;
24163;SDS011;12319;49.204;8.116;2023-04-15T06:29:40;2.92;;;1.48;;
24163;SDS011;12319;49.204;8.116;2023-04-15T06:32:06;3.00;;;1.57;;
24163;SDS011;12319;49.204;8.116;2023-04-15T06:34:31;3.10;;;1.60;;
24163;SDS011;12319;49.204;8.116;2023-04-15T06:36:57;3.10;;;1.50;;
24163;SDS011;12319;49.204;8.116;2023-04-15T06:39:23;3.28;;;1.60;;
24163;SDS011;12319;49.204;8.116;2023-04-15T06:41:49;2.97;;;1.60;;
24163;SDS011;12319;49.204;8.116;2023-04-15T06:44:14;5.10;;;1.90;;
24163;SDS011;12319;49.204;8.116;2023-04-15T06:46:40;3.53;;;1.70;;
24163;SDS011;12319;49.204;8.116;2023-04-15T06:49:05;3.73;;;1.70;;
24163;SDS011;12319;49.204;8.116;2023-04-15T06:51:33;3.80;;;1.75;;
24163;SDS011;12319;49.204;8.116;2023-04-15T06:53:59;8.15;;;2.10;;
24163;SDS011;12319;49.204;8.116;2023-04-15T06:56:26;6.18;;;2.20;;
24163;SDS011;12319;49.204;8.116;2023-04-15T06:58:52;3.53;;;1.70;;
24163;SDS011;12319;49.204;8.116;2023-04-15T07:01:17;4.63;;;1.83;;
24163;SDS011;12319;49.204;8.116;2023-04-15T07:03:43;4.37;;;1.90;;
24163;SDS011;12319;49.204;8.116;2023-04-15T07:06:09;5.15;;;1.90;;
24163;SDS011;12319;49.204;8.116;2023-04-15T07:08:34;3.50;;;1.60;;
24163;SDS011;12319;49.204;8.116;2023-04-15T07:11:00;3.47;;;1.43;;
24163;SDS011;12319;49.204;8.116;2023-04-15T07:13:26;4.65;;;3.63;;
24163;SDS011;12319;49.204;8.116;2023-04-15T07:15:51;6.97;;;4.30;;
24163;SDS011;12319;49.204;8.116;2023-04-15T07:18:17;5.78;;;3.30;;
24163;SDS011;12319;49.204;8.116;2023-04-15T07:20:42;5.90;;;4.23;;
24163;SDS011;12319;49.204;8.116;2023-04-15T07:23:08;5.73;;;4.30;;
24163;SDS011;12319;49.204;8.116;2023-04-15T07:25:34;5.47;;;3.88;;
24163;SDS011;12319;49.204;8.116;2023-04-15T07:27:59;5.60;;;4.30;;
24163;SDS011;12319;49.204;8.116;2023-04-15T07:30:26;4.70;;;3.55;;
24163;SDS011;12319;49.204;8.116;2023-04-15T07:32:52;5.25;;;3.85;;
24163;SDS011;12319;49.204;8.116;2023-04-15T07:35:18;6.50;;;4.40;;
24163;SDS011;12319;49.204;8.116;2023-04-15T07:37:45;5.65;;;3.72;;
24163;SDS011;12319;49.204;8.116;2023-04-15T07:40:11;5.25;;;3.72;;
24163;SDS011;12319;49.204;8.116;2023-04-15T07:42:38;5.17;;;3.77;;
24163;SDS011;12319;49.204;8.116;2023-04-15T07:45:04;5.50;;;3.42;;
24163;SDS011;12319;49.204;8.116;2023-04-15T07:47:30;5.45;;;3.22;;
24163;SDS011;12319;49.204;8.116;2023-04-15T07:49:56;5.10;;;3.30;;
24163;SDS011;12319;49.204;8.116;2023-04-15T07:52:22;7.43;;;3.80;;
24163;SDS011;12319;49.204;8.116;2023-04-15T07:54:47;6.57;;;4.23;;
24163;SDS011;12319;49.204;8.116;2023-04-15T07:57:13;4.83;;;3.43;;
24163;SDS011;12319;49.204;8.116;2023-04-15T07:59:38;5.63;;;3.50;;
24163;SDS011;12319;49.204;8.116;2023-04-15T08:02:04;4.93;;;3.10;;
24163;SDS011;12319;49.204;8.116;2023-04-15T08:04:30;6.37;;;4.60;;
24163;SDS011;12319;49.204;8.116;2023-04-15T08:06:56;6.82;;;2.88;;
24163;SDS011;12319;49.204;8.116;2023-04-15T08:09:22;5.72;;;3.40;;
24163;SDS011;12319;49.204;8.116;2023-04-15T08:11:48;5.30;;;3.47;;
24163;SDS011;12319;49.204;8.116;2023-04-15T08:14:14;5.72;;;3.85;;
24163;SDS011;12319;49.204;8.116;2023-04-15T08:16:40;6.13;;;3.60;;
24163;SDS011;12319;49.204;8.116;2023-04-15T08:19:06;5.33;;;3.83;;
24163;SDS011;12319;49.204;8.116;2023-04-15T08:21:31;6.10;;;3.70;;
24163;SDS011;12319;49.204;8.116;2023-04-15T08:23:57;5.53;;;3.80;;
24163;SDS011;12319;49.204;8.116;2023-04-15T08:26:24;6.38;;;3.67;;
24163;SDS011;12319;49.204;8.116;2023-04-15T08:28:50;5.85;;;4.20;;
24163;SDS011;12319;49.204;8.116;2023-04-15T08:31:17;5.30;;;3.78;;
24163;SDS011;12319;49.204;8.116;2023-04-15T08:33:43;6.57;;;5.40;;
24163;SDS011;12319;49.204;8.116;2023-04-15T08:36:09;5.00;;;3.53;;
24163;SDS011;12319;49.204;8.116;2023-04-15T08:38:35;5.20;;;3.88;;
24163;SDS011;12319;49.204;8.116;2023-04-15T08:41:10;6.55;;;4.82;;
24163;SDS011;12319;49.204;8.116;2023-04-15T08:43:51;6.88;;;5.05;;
24163;SDS011;12319;49.204;8.116;2023-04-15T08:46:18;5.65;;;3.28;;
24163;SDS011;12319;49.204;8.116;2023-04-15T08:48:45;4.93;;;3.22;;
24163;SDS011;12319;49.204;8.116;2023-04-15T08:51:12;7.05;;;4.80;;
24163;SDS011;12319;49.204;8.116;2023-04-15T08:53:40;5.20;;;3.58;;
24163;SDS011;12319;49.204;8.116;2023-04-15T08:56:11;7.07;;;6.15;;
24163;SDS011;12319;49.204;8.116;2023-04-15T08:58:38;5.57;;;4.15;;
24163;SDS011;12319;49.204;8.116;2023-04-15T09:01:04;5.53;;;3.47;;
24163;SDS011;12319;49.204;8.116;2023-04-15T09:03:30;5.55;;;3.40;;
24163;SDS011;12319;49.204;8.116;2023-04-15T09:05:56;5.65;;;3.50;;
24163;SDS011;12319;49.204;8.116;2023-04-15T09:08:22;6.03;;;3.72;;
24163;SDS011;12319;49.204;8.116;2023-04-15T09:10:48;5.83;;;4.50;;
24163;SDS011;12319;49.204;8.116;2023-04-15T09:13:14;6.93;;;3.92;;
24163;SDS011;12319;49.204;8.116;2023-04-15T09:15:39;7.00;;;4.53;;
24163;SDS011;12319;49.204;8.116;2023-04-15T09:18:05;6.20;;;4.50;;
24163;SDS011;12319;49.204;8.116;2023-04-15T09:20:37;6.03;;;4.15;;
24163;SDS011;12319;49.204;8.116;2023-04-15T09:23:12;5.65;;;3.92;;
24163;SDS011;12319;49.204;8.116;2023-04-15T09:25:39;5.90;;;4.90;;
24163;SDS011;12319;49.204;8.116;2023-04-15T09:28:08;5.80;;;3.90;;
24163;SDS011;12319;49.204;8.116;2023-04-15T09:30:34;6.28;;;4.10;;
24163;SDS011;12319;49.204;8.116;2023-04-15T09:33:01;6.13;;;4.37;;
24163;SDS011;12319;49.204;8.116;2023-04-15T09:35:28;6.22;;;4.75;;
24163;SDS011;12319;49.204;8.116;2023-04-15T09:38:01;6.05;;;4.80;;
24163;SDS011;12319;49.204;8.116;2023-04-15T09:43:00;8.02;;;5.25;;
24163;SDS011;12319;49.204;8.116;2023-04-15T09:45:27;5.35;;;3.85;;
24163;SDS011;12319;49.204;8.116;2023-04-15T09:47:53;5.68;;;4.55;;
24163;SDS011;12319;49.204;8.116;2023-04-15T09:50:20;6.03;;;4.03;;
24163;SDS011;12319;49.204;8.116;2023-04-15T09:52:46;7.50;;;3.95;;
24163;SDS011;12319;49.204;8.116;2023-04-15T09:55:12;5.67;;;4.00;;
24163;SDS011;12319;49.204;8.116;2023-04-15T09:57:39;5.45;;;4.15;;
24163;SDS011;12319;49.204;8.116;2023-04-15T10:00:06;7.97;;;4.53;;
24163;SDS011;12319;49.204;8.116;2023-04-15T10:02:33;6.07;;;3.70;;
24163;SDS011;12319;49.204;8.116;2023-04-15T10:05:00;6.30;;;4.45;;
24163;SDS011;12319;49.204;8.116;2023-04-15T10:07:27;6.50;;;4.15;;
24163;SDS011;12319;49.204;8.116;2023-04-15T10:09:52;5.97;;;4.60;;
24163;SDS011;12319;49.204;8.116;2023-04-15T10:12:18;6.80;;;4.10;;
24163;SDS011;12319;49.204;8.116;2023-04-15T10:14:52;6.45;;;4.00;;
24163;SDS011;12319;49.204;8.116;2023-04-15T10:17:22;5.75;;;4.00;;
24163;SDS011;12319;49.204;8.116;2023-04-15T10:19:53;6.35;;;4.28;;
24163;SDS011;12319;49.204;8.116;2023-04-15T10:22:19;5.78;;;3.42;;
24163;SDS011;12319;49.204;8.116;2023-04-15T10:24:46;6.28;;;4.00;;
24163;SDS011;12319;49.204;8.116;2023-04-15T10:27:13;6.00;;;4.32;;
24163;SDS011;12319;49.204;8.116;2023-04-15T10:29:38;7.10;;;4.22;;
24163;SDS011;12319;49.204;8.116;2023-04-15T10:32:04;5.43;;;3.78;;
24163;SDS011;12319;49.204;8.116;2023-04-15T10:34:30;6.03;;;3.67;;
24163;SDS011;12319;49.204;8.116;2023-04-15T10:37:03;6.20;;;3.63;;
24163;SDS011;12319;49.204;8.116;2023-04-15T10:42:58;5.30;;;3.73;;
24163;SDS011;12319;49.204;8.116;2023-04-15T10:45:26;6.15;;;4.30;;
24163;SDS011;12319;49.204;8.116;2023-04-15T10:47:56;5.85;;;4.22;;
24163;SDS011;12319;49.204;8.116;2023-04-15T10:50:25;5.00;;;3.53;;
24163;SDS011;12319;49.204;8.116;2023-04-15T10:52:52;6.68;;;3.83;;
24163;SDS011;12319;49.204;8.116;2023-04-15T10:55:19;4.87;;;3.57;;
24163;SDS011;12319;49.204;8.116;2023-04-15T10:57:46;5.38;;;3.83;;
24163;SDS011;12319;49.204;8.116;2023-04-15T11:00:17;5.88;;;3.60;;
24163;SDS011;12319;49.204;8.116;2023-04-15T11:02:53;6.43;;;3.72;;
24163;SDS011;12319;49.204;8.116;2023-04-15T11:08:10;5.70;;;4.13;;
24163;SDS011;12319;49.204;8.116;2023-04-15T11:13:03;5.77;;;4.53;;
24163;SDS011;12319;49.204;8.116;2023-04-15T11:18:08;5.55;;;3.40;;
24163;SDS011;12319;49.204;8.116;2023-04-15T11:20:34;5.60;;;3.35;;
24163;SDS011;12319;49.204;8.116;2023-04-15T11:23:01;5.57;;;3.50;;
24163;SDS011;12319;49.204;8.116;2023-04-15T11:25:29;5.03;;;3.35;;
24163;SDS011;12319;49.204;8.116;2023-04-15T11:27:57;4.80;;;3.00;;
24163;SDS011;12319;49.204;8.116;2023-04-15T11:30:24;5.30;;;4.03;;
24163;SDS011;12319;49.204;8.116;2023-04-15T11:32:52;5.97;;;4.07;;
24163;SDS011;12319;49.204;8.116;2023-04-15T11:35:25;6.70;;;3.85;;
24163;SDS011;12319;49.204;8.116;2023-04-15T11:37:51;5.30;;;3.75;;
24163;SDS011;12319;49.204;8.116;2023-04-15T11:40:21;6.47;;;5.22;;
24163;SDS011;12319;49.204;8.116;2023-04-15T11:43:03;5.60;;;3.88;;
24163;SDS011;12319;49.204;8.116;2023-04-15T11:45:29;5.40;;;3.83;;
24163;SDS011;12319;49.204;8.116;2023-04-15T11:48:03;5.53;;;4.15;;
24163;SDS011;12319;49.204;8.116;2023-04-15T11:50:38;6.20;;;3.63;;
24163;SDS011;12319;49.204;8.116;2023-04-15T11:53:05;6.45;;;3.47;;
24163;SDS011;12319;49.204;8.116;2023-04-15T11:55:46;7.15;;;3.90;;
24163;SDS011;12319;49.204;8.116;2023-04-15T11:58:16;5.78;;;3.67;;
24163;SDS011;12319;49.204;8.116;2023-04-15T12:00:50;5.82;;;4.28;;
24163;SDS011;12319;49.204;8.116;2023-04-15T12:03:22;7.07;;;4.23;;
24163;SDS011;12319;49.204;8.116;2023-04-15T12:06:04;5.40;;;3.63;;
24163;SDS011;12319;49.204;8.116;2023-04-15T12:16:29;5.57;;;3.25;;
24163;SDS011;12319;49.204;8.116;2023-04-15T12:18:56;4.82;;;3.65;;
24163;SDS011;12319;49.204;8.116;2023-04-15T12:21:24;4.78;;;3.30;;
24163;SDS011;12319;49.204;8.116;2023-04-15T12:24:00;4.32;;;3.13;;
24163;SDS011;12319;49.204;8.116;2023-04-15T12:26:28;4.75;;;2.85;;
24163;SDS011;12319;49.204;8.116;2023-04-15T12:28:59;5.32;;;3.47;;
24163;SDS011;12319;49.204;8.116;2023-04-15T12:31:26;6.45;;;3.72;;
24163;SDS011;12319;49.204;8.116;2023-04-15T12:33:53;6.53;;;3.90;;
24163;SDS011;12319;49.204;8.116;2023-04-15T12:36:20;5.22;;;3.17;;
24163;SDS011;12319;49.204;8.116;2023-04-15T12:38:46;5.25;;;3.50;;
24163;SDS011;12319;49.204;8.116;2023-04-15T12:41:12;5.17;;;3.33;;
24163;SDS011;12319;49.204;8.116;2023-04-15T12:43:38;4.57;;;3.00;;
24163;SDS011;12319;49.204;8.116;2023-04-15T12:46:03;4.80;;;3.10;;
24163;SDS011;12319;49.204;8.116;2023-04-15T12:48:29;5.03;;;2.87;;
24163;SDS011;12319;49.204;8.116;2023-04-15T12:50:54;4.47;;;3.17;;
24163;SDS011;12319;49.204;8.116;2023-04-15T12:53:20;4.97;;;3.30;;
24163;SDS011;12319;49.204;8.116;2023-04-15T12:55:46;5.43;;;2.80;;
24163;SDS011;12319;49.204;8.116;2023-04-15T12:58:12;4.70;;;3.17;;
24163;SDS011;12319;49.204;8.116;2023-04-15T13:00:37;4.73;;;3.13;;
24163;SDS011;12319;49.204;8.116;2023-04-15T13:03:03;5.30;;;3.40;;
24163;SDS011;12319;49.204;8.116;2023-04-15T13:05:29;6.07;;;3.70;;
24163;SDS011;12319;49.204;8.116;2023-04-15T13:07:54;5.00;;;3.70;;
24163;SDS011;12319;49.204;8.116;2023-04-15T13:10:20;5.23;;;3.90;;
24163;SDS011;12319;49.204;8.116;2023-04-15T13:12:47;6.35;;;3.92;;
24163;SDS011;12319;49.204;8.116;2023-04-15T13:15:16;5.72;;;3.58;;
24163;SDS011;12319;49.204;8.116;2023-04-15T13:17:44;6.03;;;3.70;;
24163;SDS011;12319;49.204;8.116;2023-04-15T13:20:10;6.38;;;3.22;;
24163;SDS011;12319;49.204;8.116;2023-04-15T13:22:36;5.10;;;3.60;;
24163;SDS011;12319;49.204;8.116;2023-04-15T13:25:01;6.63;;;3.78;;
24163;SDS011;12319;49.204;8.116;2023-04-15T13:27:27;5.73;;;3.90;;
24163;SDS011;12319;49.204;8.116;2023-04-15T13:29:53;4.70;;;3.28;;
24163;SDS011;12319;49.204;8.116;2023-04-15T13:32:18;5.40;;;4.07;;
24163;SDS011;12319;49.204;8.116;2023-04-15T13:34:44;6.47;;;4.32;;
24163;SDS011;12319;49.204;8.116;2023-04-15T13:37:10;5.03;;;3.60;;
24163;SDS011;12319;49.204;8.116;2023-04-15T13:39:35;5.30;;;3.47;;
24163;SDS011;12319;49.204;8.116;2023-04-15T13:42:01;5.38;;;3.30;;
24163;SDS011;12319;49.204;8.116;2023-04-15T13:44:27;5.28;;;3.88;;
24163;SDS011;12319;49.204;8.116;2023-04-15T13:46:52;6.33;;;3.87;;
24163;SDS011;12319;49.204;8.116;2023-04-15T13:49:18;5.73;;;3.53;;
24163;SDS011;12319;49.204;8.116;2023-04-15T13:51:43;4.93;;;3.58;;
24163;SDS011;12319;49.204;8.116;2023-04-15T13:54:09;4.90;;;3.63;;
24163;SDS011;12319;49.204;8.116;2023-04-15T13:56:35;5.73;;;3.63;;
24163;SDS011;12319;49.204;8.116;2023-04-15T13:59:00;6.35;;;3.70;;
24163;SDS011;12319;49.204;8.116;2023-04-15T14:01:27;5.65;;;3.65;;
24163;SDS011;12319;49.204;8.116;2023-04-15T14:03:53;6.72;;;3.65;;
24163;SDS011;12319;49.204;8.116;2023-04-15T14:06:18;5.78;;;3.33;;
24163;SDS011;12319;49.204;8.116;2023-04-15T14:08:44;5.43;;;3.67;;
24163;SDS011;12319;49.204;8.116;2023-04-15T14:11:10;4.72;;;3.20;;
24163;SDS011;12319;49.204;8.116;2023-04-15T14:13:35;5.00;;;3.30;;
24163;SDS011;12319;49.204;8.116;2023-04-15T14:16:01;5.00;;;3.58;;
24163;SDS011;12319;49.204;8.116;2023-04-15T14:18:27;4.90;;;3.67;;
24163;SDS011;12319;49.204;8.116;2023-04-15T14:20:53;6.18;;;3.67;;
24163;SDS011;12319;49.204;8.116;2023-04-15T14:23:19;5.50;;;4.57;;
24163;SDS011;12319;49.204;8.116;2023-04-15T14:25:45;4.20;;;3.03;;
24163;SDS011;12319;49.204;8.116;2023-04-15T14:28:10;5.68;;;4.25;;
24163;SDS011;12319;49.204;8.116;2023-04-15T14:30:36;6.23;;;4.53;;
24163;SDS011;12319;49.204;8.116;2023-04-15T14:33:02;4.37;;;3.00;;
24163;SDS011;12319;49.204;8.116;2023-04-15T14:35:27;4.13;;;2.97;;
24163;SDS011;12319;49.204;8.116;2023-04-15T14:37:53;5.67;;;3.10;;
24163;SDS011;12319;49.204;8.116;2023-04-15T14:40:19;4.30;;;3.08;;
24163;SDS011;12319;49.204;8.116;2023-04-15T14:42:45;4.35;;;3.28;;
24163;SDS011;12319;49.204;8.116;2023-04-15T14:45:11;6.47;;;3.42;;
24163;SDS011;12319;49.204;8.116;2023-04-15T14:47:36;4.60;;;3.20;;
24163;SDS011;12319;49.204;8.116;2023-04-15T14:50:02;5.07;;;3.17;;
24163;SDS011;12319;49.204;8.116;2023-04-15T14:52:29;4.60;;;3.43;;
24163;SDS011;12319;49.204;8.116;2023-04-15T14:54:56;4.43;;;3.08;;
24163;SDS011;12319;49.204;8.116;2023-04-15T14:57:22;4.57;;;3.13;;
24163;SDS011;12319;49.204;8.116;2023-04-15T14:59:48;4.83;;;3.50;;
24163;SDS011;12319;49.204;8.116;2023-04-15T15:02:13;4.37;;;3.20;;
24163;SDS011;12319;49.204;8.116;2023-04-15T15:04:40;5.38;;;3.10;;